createdAt,value
2023-02-15T00:00:11.635Z,10.75
2023-02-15T00:02:59.167Z,11.07
2023-02-15T00:05:26.311Z,10.70
2023-02-15T00:07:53.777Z,11.80
2023-02-15T00:10:20.961Z,12.05
2023-02-15T00:12:48.517Z,12.55
2023-02-15T00:15:15.694Z,13.10
2023-02-15T00:17:43.172Z,14.07
2023-02-15T00:20:10.742Z,13.23
2023-02-15T00:22:38.223Z,12.20
2023-02-15T00:25:05.795Z,10.63
2023-02-15T00:27:35.146Z,12.23
2023-02-15T00:30:03.793Z,12.02
2023-02-15T00:32:31.335Z,12.98
2023-02-15T00:34:58.598Z,11.63
2023-02-15T00:37:26.106Z,11.88
2023-02-15T00:39:53.245Z,11.65
2023-02-15T00:42:20.721Z,11.95
2023-02-15T00:44:47.833Z,11.65
2023-02-15T00:47:15.350Z,12.85
2023-02-15T00:49:42.457Z,13.43
2023-02-15T00:52:10.299Z,13.57
2023-02-15T00:54:39.737Z,12.27
2023-02-15T00:57:07.399Z,11.18
2023-02-15T00:59:35.785Z,12.30
2023-02-15T01:02:03.325Z,12.40
2023-02-15T01:04:30.600Z,11.93
2023-02-15T01:06:58.363Z,11.73
2023-02-15T01:09:25.729Z,13.43
2023-02-15T01:11:53.369Z,12.07
2023-02-15T01:14:20.581Z,14.10
2023-02-15T01:16:48.047Z,12.07
2023-02-15T01:19:15.870Z,14.95
2023-02-15T01:21:43.309Z,12.23
2023-02-15T01:24:17.785Z,15.20
2023-02-15T01:26:45.205Z,13.43
2023-02-15T01:29:12.553Z,13.13
2023-02-15T01:31:40.277Z,13.05
2023-02-15T01:34:07.745Z,13.75
2023-02-15T01:36:36.276Z,13.77
2023-02-15T01:39:03.770Z,13.48
2023-02-15T01:41:32.428Z,13.85
2023-02-15T01:44:02.835Z,12.82
2023-02-15T01:46:41.664Z,13.07
2023-02-15T01:49:16.179Z,13.02
2023-02-15T01:51:46.950Z,12.30
2023-02-15T01:54:14.040Z,12.68
2023-02-15T01:56:42.865Z,12.05
2023-02-15T01:59:15.949Z,12.70
2023-02-15T02:01:44.414Z,12.43
2023-02-15T02:04:24.188Z,13.75
2023-02-15T02:06:52.449Z,12.55
2023-02-15T02:09:19.595Z,12.63
2023-02-15T02:11:49.183Z,11.30
2023-02-15T02:14:17.674Z,11.88
2023-02-15T02:17:08.049Z,13.70
2023-02-15T02:20:17.817Z,13.57
2023-02-15T02:23:06.223Z,12.07
2023-02-15T02:26:04.541Z,12.85
2023-02-15T02:29:05.908Z,13.40
2023-02-15T02:31:38.949Z,12.75
2023-02-15T02:34:23.806Z,14.68
2023-02-15T02:37:13.620Z,13.63
2023-02-15T02:39:50.614Z,13.55
2023-02-15T02:42:30.796Z,14.63
2023-02-15T02:45:09.152Z,13.63
2023-02-15T02:47:55.117Z,14.23
2023-02-15T02:50:29.184Z,12.02
2023-02-15T02:52:58.314Z,13.10
2023-02-15T02:55:52.490Z,14.95
2023-02-15T02:58:39.394Z,12.13
2023-02-15T03:01:21.702Z,13.07
2023-02-15T03:04:04.731Z,12.52
2023-02-15T03:06:52.294Z,14.65
2023-02-15T03:09:23.977Z,12.90
2023-02-15T03:11:51.784Z,12.68
2023-02-15T03:14:21.250Z,14.57
2023-02-15T03:16:51.377Z,15.13
2023-02-15T03:19:33.498Z,13.60
2023-02-15T03:22:14.761Z,12.80
2023-02-15T03:24:52.441Z,12.00
2023-02-15T03:27:26.653Z,13.05
2023-02-15T03:29:58.555Z,12.32
2023-02-15T03:32:29.438Z,11.48
2023-02-15T03:34:56.883Z,12.02
2023-02-15T03:37:45.833Z,13.50
2023-02-15T03:40:57.316Z,12.80
2023-02-15T03:44:01.885Z,12.00
2023-02-15T03:46:43.603Z,12.10
2023-02-15T03:49:41.105Z,12.77
2023-02-15T03:52:11.498Z,12.82
2023-02-15T03:54:43.359Z,12.00
2023-02-15T03:57:39.491Z,10.82
2023-02-15T04:00:33.821Z,10.63
2023-02-15T04:03:24.003Z,11.10
2023-02-15T04:05:51.779Z,11.02
2023-02-15T04:08:19.034Z,10.40
2023-02-15T04:10:57.267Z,11.85
2023-02-15T04:13:32.806Z,9.30
2023-02-15T04:16:07.572Z,9.65
2023-02-15T04:19:01.789Z,9.07
2023-02-15T04:21:50.025Z,8.88
2023-02-15T04:24:36.508Z,9.20
2023-02-15T04:27:05.427Z,8.48
2023-02-15T04:29:33.270Z,8.55
2023-02-15T04:32:02.276Z,8.82
2023-02-15T04:34:29.462Z,9.75
2023-02-15T04:36:57.062Z,8.88
2023-02-15T04:39:24.311Z,8.05
2023-02-15T04:41:52.034Z,8.48
2023-02-15T04:44:19.244Z,9.88
2023-02-15T04:46:46.823Z,8.73
2023-02-15T04:49:13.995Z,10.32
2023-02-15T04:51:41.784Z,11.10
2023-02-15T04:54:09.022Z,9.60
2023-02-15T04:56:38.908Z,9.85
2023-02-15T04:59:06.414Z,10.82
2023-02-15T05:01:33.830Z,9.07
2023-02-15T05:04:01.132Z,9.98
2023-02-15T05:06:28.581Z,10.48
2023-02-15T05:08:55.893Z,10.27
2023-02-15T05:11:23.419Z,12.00
2023-02-15T05:13:50.514Z,11.63
2023-02-15T05:16:18.849Z,11.70
2023-02-15T05:18:46.099Z,12.75
2023-02-15T05:21:14.678Z,11.70
2023-02-15T05:23:41.833Z,10.50
2023-02-15T05:26:31.915Z,12.32
2023-02-15T05:28:59.006Z,12.00
2023-02-15T05:31:26.949Z,13.77
2023-02-15T05:33:54.237Z,11.57
2023-02-15T05:36:21.638Z,12.02
2023-02-15T05:38:49.178Z,11.57
2023-02-15T05:41:16.604Z,10.07
2023-02-15T05:43:43.971Z,8.65
2023-02-15T05:46:12.802Z,14.00
2023-02-15T05:48:40.003Z,17.25
2023-02-15T05:51:10.506Z,13.93
2023-02-15T05:53:39.405Z,11.45
2023-02-15T05:56:10.651Z,55.10
2023-02-15T05:58:40.887Z,15.75
2023-02-15T06:01:16.454Z,12.20
2023-02-15T06:03:44.132Z,20.20
2023-02-15T06:06:12.029Z,12.93
2023-02-15T06:08:39.649Z,10.57
2023-02-15T06:11:07.868Z,21.83
2023-02-15T06:13:38.364Z,12.95
2023-02-15T06:16:07.081Z,14.85
2023-02-15T06:18:35.018Z,12.90
2023-02-15T06:21:03.344Z,10.70
2023-02-15T06:23:30.476Z,15.95
2023-02-15T06:25:58.019Z,12.00
2023-02-15T06:28:26.526Z,41.03
2023-02-15T06:30:54.128Z,9.52
2023-02-15T06:33:22.585Z,9.10
2023-02-15T06:35:50.057Z,8.68
2023-02-15T06:38:18.652Z,7.82
2023-02-15T06:40:46.023Z,43.80
2023-02-15T06:43:13.230Z,8.75
2023-02-15T06:45:42.050Z,8.77
2023-02-15T06:48:09.420Z,7.65
2023-02-15T06:50:36.845Z,8.82
2023-02-15T06:53:04.208Z,7.25
2023-02-15T06:55:31.674Z,10.25
2023-02-15T06:57:58.869Z,7.50
2023-02-15T07:00:26.524Z,10.63
2023-02-15T07:02:58.808Z,7.57
2023-02-15T07:05:31.921Z,6.80
2023-02-15T07:08:00.301Z,7.38
2023-02-15T07:10:29.882Z,14.65
2023-02-15T07:12:57.281Z,18.13
2023-02-15T07:15:25.455Z,8.48
2023-02-15T07:17:52.675Z,8.02
2023-02-15T07:20:22.840Z,8.32
2023-02-15T07:22:50.379Z,8.52
2023-02-15T07:25:18.366Z,112.82
2023-02-15T07:27:46.300Z,13.55
2023-02-15T07:30:16.569Z,10.45
2023-02-15T07:33:05.109Z,36.90
2023-02-15T07:35:33.957Z,34.63
2023-02-15T07:38:02.254Z,51.85
2023-02-15T07:40:29.708Z,8.60
2023-02-15T07:43:00.137Z,8.77
2023-02-15T07:45:28.174Z,7.43
2023-02-15T07:47:55.603Z,8.00
2023-02-15T07:50:23.349Z,22.27
2023-02-15T07:52:50.498Z,17.02
2023-02-15T07:55:17.948Z,10.48
2023-02-15T07:57:46.985Z,11.73
2023-02-15T08:00:16.426Z,9.45
2023-02-15T08:02:49.154Z,20.40
2023-02-15T08:05:18.034Z,14.18
2023-02-15T08:07:45.197Z,12.10
2023-02-15T08:10:32.575Z,26.08
2023-02-15T08:12:59.778Z,7.60
2023-02-15T08:15:27.225Z,8.38
2023-02-15T08:17:54.425Z,8.73
2023-02-15T08:20:21.862Z,8.27
2023-02-15T08:22:49.020Z,12.65
2023-02-15T08:25:16.491Z,15.00
2023-02-15T08:27:43.703Z,11.38
2023-02-15T08:30:11.862Z,10.75
2023-02-15T08:32:39.073Z,9.38
2023-02-15T08:35:06.877Z,8.55
2023-02-15T08:37:34.013Z,8.82
2023-02-15T08:40:01.475Z,9.00
2023-02-15T08:42:28.596Z,7.97
2023-02-15T08:44:56.058Z,8.40
2023-02-15T08:47:23.209Z,8.02
2023-02-15T08:49:52.160Z,9.88
2023-02-15T08:52:19.370Z,10.48
2023-02-15T08:54:46.835Z,13.73
2023-02-15T08:57:13.988Z,10.77
2023-02-15T08:59:41.419Z,14.13
2023-02-15T09:02:11.487Z,11.43
2023-02-15T09:04:38.974Z,10.25
2023-02-15T09:07:06.199Z,13.98
2023-02-15T09:09:33.690Z,10.05
2023-02-15T09:12:00.861Z,11.20
2023-02-15T09:14:28.789Z,11.05
2023-02-15T09:16:56.377Z,13.35
2023-02-15T09:19:25.125Z,11.60
2023-02-15T09:21:52.720Z,13.27
2023-02-15T09:24:20.272Z,21.40
2023-02-15T09:26:49.441Z,12.52
2023-02-15T09:29:18.850Z,16.70
2023-02-15T09:31:51.083Z,11.48
2023-02-15T09:34:21.516Z,14.45
2023-02-15T09:36:49.613Z,13.80
2023-02-15T09:39:24.738Z,10.88
2023-02-15T09:42:27.344Z,11.55
2023-02-15T09:45:06.624Z,17.80
2023-02-15T09:47:58.289Z,14.48
2023-02-15T09:51:01.717Z,16.48
2023-02-15T09:53:40.121Z,14.63
2023-02-15T09:56:10.134Z,13.55
2023-02-15T09:58:51.937Z,18.23
2023-02-15T10:01:35.928Z,15.93
2023-02-15T10:04:14.167Z,19.23
2023-02-15T10:07:02.992Z,12.77
2023-02-15T10:09:56.840Z,12.95
2023-02-15T10:12:50.899Z,12.23
2023-02-15T10:15:40.666Z,13.52
2023-02-15T10:18:08.112Z,14.43
2023-02-15T10:21:03.969Z,13.75
2023-02-15T10:23:31.552Z,18.67
2023-02-15T10:26:17.342Z,24.10
2023-02-15T10:29:17.727Z,17.88
2023-02-15T10:31:50.878Z,18.63
2023-02-15T10:34:39.150Z,16.15
2023-02-15T10:37:12.110Z,14.20
2023-02-15T10:39:51.292Z,14.23
2023-02-15T10:42:55.309Z,17.13
2023-02-15T10:45:37.222Z,20.50
2023-02-15T10:48:16.552Z,16.02
2023-02-15T10:50:51.540Z,15.27
2023-02-15T10:53:21.450Z,14.60
2023-02-15T10:56:04.596Z,14.77
2023-02-15T10:58:44.756Z,16.00
2023-02-15T11:01:27.478Z,16.75
2023-02-15T11:04:17.447Z,19.90
2023-02-15T11:06:53.162Z,16.52
2023-02-15T11:09:23.691Z,17.48
2023-02-15T11:11:54.351Z,16.90
2023-02-15T11:15:01.451Z,18.02
2023-02-15T11:17:39.184Z,16.27
2023-02-15T11:20:19.922Z,16.77
2023-02-15T11:22:54.359Z,20.48
2023-02-15T11:25:35.410Z,19.00
2023-02-15T11:28:11.151Z,21.65
2023-02-15T11:30:48.832Z,21.63
2023-02-15T11:33:23.301Z,20.20
2023-02-15T11:36:04.817Z,20.60
2023-02-15T11:38:37.546Z,21.55
2023-02-15T11:41:10.737Z,26.70
2023-02-15T11:43:51.096Z,17.05
2023-02-15T11:46:19.963Z,18.23
2023-02-15T11:48:47.494Z,20.08
2023-02-15T11:51:22.718Z,20.65
2023-02-15T11:53:51.884Z,17.60
2023-02-15T11:56:27.195Z,17.42
2023-02-15T11:59:01.636Z,17.40
2023-02-15T12:01:54.864Z,19.70
2023-02-15T12:04:41.246Z,15.90
2023-02-15T12:07:22.854Z,17.70
2023-02-15T12:10:19.209Z,17.45
2023-02-15T12:12:46.543Z,17.98
2023-02-15T12:15:15.144Z,18.50
2023-02-15T12:18:00.270Z,16.95
2023-02-15T12:20:36.864Z,15.35
2023-02-15T12:23:12.736Z,17.55
2023-02-15T12:25:55.460Z,19.33
2023-02-15T12:28:35.431Z,19.48
2023-02-15T12:31:09.128Z,18.85
2023-02-15T12:33:42.954Z,19.25
2023-02-15T12:36:28.993Z,18.70
2023-02-15T12:39:18.288Z,20.38
2023-02-15T12:41:57.821Z,19.83
2023-02-15T12:44:29.818Z,17.88
2023-02-15T12:47:01.467Z,17.20
2023-02-15T12:49:30.457Z,18.02
2023-02-15T12:52:00.549Z,18.08
2023-02-15T12:54:41.487Z,18.92
2023-02-15T12:57:26.770Z,17.98
2023-02-15T12:59:56.939Z,18.48
2023-02-15T13:02:53.704Z,17.70
2023-02-15T13:05:44.157Z,21.08
2023-02-15T13:08:28.208Z,19.45
2023-02-15T13:11:05.203Z,18.70
2023-02-15T13:13:35.586Z,21.98
2023-02-15T13:16:13.591Z,22.25
2023-02-15T13:18:45.102Z,20.27
2023-02-15T13:21:22.173Z,24.17
2023-02-15T13:23:54.599Z,24.33
2023-02-15T13:26:24.602Z,25.23
2023-02-15T13:28:56.560Z,22.52
2023-02-15T13:31:34.193Z,24.58
2023-02-15T13:34:11.100Z,28.58
2023-02-15T13:37:04.925Z,27.65
2023-02-15T13:39:55.893Z,24.63
2023-02-15T13:42:39.537Z,26.20
2023-02-15T13:45:34.987Z,26.35
2023-02-15T13:48:17.556Z,27.10
2023-02-15T13:51:03.924Z,31.00
2023-02-15T13:53:43.270Z,29.67
2023-02-15T13:56:32.253Z,31.95
2023-02-15T13:59:18.903Z,31.58
2023-02-15T14:01:46.312Z,31.02
2023-02-15T14:04:32.022Z,32.58
2023-02-15T14:07:22.864Z,40.10
2023-02-15T14:10:03.752Z,39.60
2023-02-15T14:12:36.627Z,39.33
2023-02-15T14:15:33.395Z,34.05
2023-02-15T14:18:14.719Z,32.13
2023-02-15T14:21:11.299Z,35.60
2023-02-15T14:23:57.203Z,38.08
2023-02-15T14:26:27.174Z,42.72
2023-02-15T14:29:07.532Z,40.25
2023-02-15T14:31:42.807Z,39.20
2023-02-15T14:34:28.829Z,36.90
2023-02-15T14:36:57.089Z,39.00
2023-02-15T14:39:51.377Z,39.67
2023-02-15T14:42:24.575Z,38.75
2023-02-15T14:45:21.518Z,49.40
2023-02-15T14:48:24.985Z,46.00
2023-02-15T14:50:52.631Z,39.92
2023-02-15T14:53:39.515Z,41.65
2023-02-15T14:56:08.478Z,38.67
2023-02-15T14:58:36.158Z,40.42
2023-02-15T15:01:13.654Z,39.75
2023-02-15T15:03:54.091Z,37.03
2023-02-15T15:06:28.770Z,36.75
2023-02-15T15:09:13.211Z,39.15
2023-02-15T15:11:44.930Z,38.38
2023-02-15T15:14:35.181Z,36.95
2023-02-15T15:17:04.866Z,36.47
2023-02-15T15:19:59.575Z,35.60
2023-02-15T15:22:29.609Z,33.00
2023-02-15T15:25:02.156Z,30.92
2023-02-15T15:27:55.691Z,30.80
2023-02-15T15:30:23.266Z,30.55
2023-02-15T15:32:59.604Z,31.20
2023-02-15T15:35:53.750Z,34.40
2023-02-15T15:38:58.439Z,34.60
2023-02-15T15:42:05.311Z,31.02
2023-02-15T15:45:00.599Z,29.05
2023-02-15T15:47:56.143Z,32.75
2023-02-15T15:50:33.179Z,33.45
2023-02-15T15:53:02.568Z,34.90
2023-02-15T15:55:32.997Z,34.65
2023-02-15T15:58:06.960Z,32.45
2023-02-15T16:00:45.771Z,34.35
2023-02-15T16:03:23.791Z,33.40
2023-02-15T16:05:56.213Z,33.83
2023-02-15T16:08:49.390Z,33.33
2023-02-15T16:11:26.397Z,32.88
2023-02-15T16:13:54.550Z,35.42
2023-02-15T16:16:25.993Z,37.03
2023-02-15T16:18:53.549Z,32.15
2023-02-15T16:21:24.543Z,34.53
2023-02-15T16:24:06.666Z,34.10
2023-02-15T16:26:45.969Z,35.05
2023-02-15T16:29:18.815Z,34.10
2023-02-15T16:32:29.136Z,31.77
2023-02-15T16:35:02.114Z,33.13
2023-02-15T16:37:38.771Z,34.00
2023-02-15T16:40:06.828Z,29.52
2023-02-15T16:42:36.017Z,34.50
2023-02-15T16:45:15.653Z,36.47
2023-02-15T16:47:48.094Z,32.47
2023-02-15T16:50:38.931Z,30.83
2023-02-15T16:53:15.490Z,31.77
2023-02-15T16:55:44.043Z,38.38
2023-02-15T16:58:17.641Z,29.48
2023-02-15T17:00:45.801Z,28.77
2023-02-15T17:03:13.268Z,31.65
2023-02-15T17:05:56.063Z,29.92
2023-02-15T17:08:34.260Z,28.35
2023-02-15T17:11:22.997Z,30.60
2023-02-15T17:14:06.518Z,33.95
2023-02-15T17:16:50.580Z,29.92
2023-02-15T17:19:20.873Z,27.52
2023-02-15T17:22:10.133Z,27.25
2023-02-15T17:24:44.022Z,27.60
2023-02-15T17:27:19.263Z,25.35
2023-02-15T17:29:58.118Z,23.05
2023-02-15T17:32:28.451Z,25.95
2023-02-15T17:35:29.489Z,25.42
2023-02-15T17:38:21.520Z,27.55
2023-02-15T17:40:49.051Z,27.95
2023-02-15T17:43:16.113Z,29.15
2023-02-15T17:45:51.400Z,28.73
2023-02-15T17:48:33.466Z,30.80
2023-02-15T17:51:06.361Z,30.98
2023-02-15T17:53:34.405Z,30.95
2023-02-15T17:56:10.446Z,31.98
2023-02-15T17:58:39.424Z,30.17
2023-02-15T18:01:36.970Z,28.02
2023-02-15T18:04:23.986Z,28.05
2023-02-15T18:07:10.061Z,28.15
2023-02-15T18:09:55.835Z,30.73
2023-02-15T18:12:38.652Z,26.52
2023-02-15T18:15:07.323Z,29.73
2023-02-15T18:17:38.326Z,27.60
2023-02-15T18:20:24.340Z,29.45
2023-02-15T18:22:52.489Z,29.50
2023-02-15T18:25:23.636Z,27.63
2023-02-15T18:27:53.359Z,30.15
2023-02-15T18:30:24.017Z,27.17
2023-02-15T18:32:54.014Z,34.90
2023-02-15T18:35:24.612Z,28.38
2023-02-15T18:37:53.625Z,29.50
2023-02-15T18:40:24.179Z,28.42
2023-02-15T18:42:51.810Z,26.00
2023-02-15T18:45:24.886Z,24.58
2023-02-15T18:47:52.291Z,26.65
2023-02-15T18:50:21.766Z,25.33
2023-02-15T18:52:53.169Z,26.30
2023-02-15T18:55:23.631Z,24.00
2023-02-15T18:57:53.336Z,24.98
2023-02-15T19:00:25.883Z,26.10
2023-02-15T19:02:54.528Z,31.58
2023-02-15T19:05:22.635Z,23.80
2023-02-15T19:07:51.464Z,25.00
2023-02-15T19:10:24.653Z,26.98
2023-02-15T19:12:53.058Z,26.98
2023-02-15T19:15:30.586Z,27.92
2023-02-15T19:17:58.315Z,26.63
2023-02-15T19:20:44.104Z,26.35
2023-02-15T19:23:20.887Z,24.42
2023-02-15T19:25:49.815Z,28.73
2023-02-15T19:28:21.379Z,27.70
2023-02-15T19:30:48.642Z,33.85
2023-02-15T19:33:20.812Z,28.45
2023-02-15T19:35:54.087Z,27.20
2023-02-15T19:38:29.208Z,29.35
2023-02-15T19:41:01.994Z,27.85
2023-02-15T19:43:30.241Z,25.73
2023-02-15T19:45:57.467Z,28.58
2023-02-15T19:48:24.997Z,27.80
2023-02-15T19:50:56.960Z,26.17
2023-02-15T19:53:29.076Z,25.48
2023-02-15T19:55:56.371Z,31.33
2023-02-15T19:58:24.326Z,28.40
2023-02-15T20:00:52.384Z,27.95
2023-02-15T20:03:20.148Z,27.67
2023-02-15T20:05:47.816Z,27.38
2023-02-15T20:08:19.432Z,28.45
2023-02-15T20:10:46.700Z,27.23
2023-02-15T20:13:16.360Z,30.20
2023-02-15T20:15:44.510Z,29.35
2023-02-15T20:18:12.619Z,31.55
2023-02-15T20:20:41.653Z,32.58
2023-02-15T20:23:31.426Z,29.45
2023-02-15T20:26:01.096Z,28.92
2023-02-15T20:28:31.301Z,32.38
2023-02-15T20:30:58.896Z,30.40
2023-02-15T20:33:26.103Z,30.60
2023-02-15T20:35:53.680Z,29.33
2023-02-15T20:38:24.823Z,34.65
2023-02-15T20:41:12.479Z,30.38
2023-02-15T20:43:39.706Z,28.58
2023-02-15T20:46:07.766Z,31.23
2023-02-15T20:48:35.513Z,28.35
2023-02-15T20:51:03.877Z,31.70
2023-02-15T20:53:31.307Z,30.40
2023-02-15T20:55:58.795Z,32.55
2023-02-15T20:58:28.861Z,32.63
2023-02-15T21:00:58.973Z,31.23
2023-02-15T21:03:31.035Z,29.23
2023-02-15T21:05:59.453Z,30.25
2023-02-15T21:08:27.382Z,29.88
2023-02-15T21:10:55.153Z,28.05
2023-02-15T21:13:29.643Z,30.67
2023-02-15T21:15:58.197Z,31.38
2023-02-15T21:18:27.960Z,28.88
2023-02-15T21:20:58.369Z,28.88
2023-02-15T21:23:41.328Z,27.02
2023-02-15T21:26:21.339Z,28.88
2023-02-15T21:28:50.141Z,27.42
2023-02-15T21:31:25.797Z,27.67
2023-02-15T21:33:53.479Z,28.70
2023-02-15T21:36:24.298Z,32.05
2023-02-15T21:38:53.811Z,29.65
2023-02-15T21:41:41.795Z,29.02
2023-02-15T21:44:39.848Z,29.85
2023-02-15T21:47:46.162Z,29.10
2023-02-15T21:50:43.716Z,28.77
2023-02-15T21:53:18.249Z,29.25
2023-02-15T21:55:45.365Z,30.90
2023-02-15T21:58:20.306Z,31.33
2023-02-15T22:00:48.337Z,33.05
2023-02-15T22:03:16.064Z,33.13
2023-02-15T22:05:43.216Z,33.05
2023-02-15T22:08:13.315Z,36.03
2023-02-15T22:10:41.385Z,34.78
2023-02-15T22:13:13.765Z,37.25
2023-02-15T22:15:41.913Z,35.42
2023-02-15T22:18:20.675Z,31.70
2023-02-15T22:20:48.880Z,31.27
2023-02-15T22:23:16.392Z,33.95
2023-02-15T22:25:54.618Z,27.25
2023-02-15T22:28:31.685Z,31.02
2023-02-15T22:30:58.988Z,30.83
2023-02-15T22:33:30.082Z,29.02
2023-02-15T22:35:57.361Z,30.80
2023-02-15T22:38:25.084Z,34.13
2023-02-15T22:40:55.328Z,29.65
2023-02-15T22:43:40.667Z,31.08
2023-02-15T22:46:17.302Z,39.15
2023-02-15T22:51:17.858Z,32.85
2023-02-15T22:53:45.590Z,34.30
2023-02-15T22:56:37.976Z,32.25
2023-02-15T22:59:10.694Z,37.03
2023-02-15T23:01:38.612Z,31.83
2023-02-15T23:04:06.227Z,43.42
2023-02-15T23:06:34.603Z,34.88
2023-02-15T23:09:02.208Z,35.85
2023-02-15T23:11:29.383Z,68.80
2023-02-15T23:13:57.532Z,37.67
2023-02-15T23:16:24.772Z,34.00
2023-02-15T23:18:52.289Z,34.50
2023-02-15T23:21:25.838Z,36.13
2023-02-15T23:23:57.490Z,32.55
2023-02-15T23:26:31.770Z,32.55
2023-02-15T23:29:00.873Z,31.95
2023-02-15T23:31:34.212Z,31.25
2023-02-15T23:34:07.339Z,32.38
2023-02-15T23:36:37.372Z,30.17
2023-02-15T23:39:44.700Z,31.20
2023-02-15T23:42:18.867Z,28.70
2023-02-15T23:44:48.029Z,29.05
2023-02-15T23:47:53.525Z,33.30
2023-02-15T23:50:24.451Z,29.45
2023-02-15T23:52:52.946Z,30.60
2023-02-15T23:55:21.517Z,34.38
2023-02-15T23:57:49.678Z,30.83
